Time;durP1;ratioP1;P1;durP2;ratioP2;P2;SDS_P1;SDS_P2;PMS_P1;PMS_P2;Temp;Humidity;BMP_temperature;BMP_pressure;BME280_temperature;BME280_humidity;BME280_pressure;Samples;Min_cycle;Max_cycle;Signal;HPM_P1;HPM_P2
2023/12/14 00:01:16;;;;;;;57.63;28.88;;;;;;;;;;5058049;28;20651;-82
2023/12/14 00:03:44;;;;;;;69.45;30.10;;;;;;;;;;5057408;28;20208;-83
2023/12/14 00:06:10;;;;;;;69.70;31.35;;;;;;;;;;5056746;28;20624;-82
2023/12/14 00:08:36;;;;;;;80.38;32.10;;;;;;;;;;5057922;28;20548;-83
2023/12/14 00:11:09;;;;;;;64.40;29.58;;;;;;;;;;5057918;28;20506;-83
2023/12/14 00:13:35;;;;;;;67.65;31.58;;;;;;;;;;5057739;28;20205;-82
2023/12/14 00:16:01;;;;;;;75.03;32.42;;;;;;;;;;5057452;28;20201;-82
2023/12/14 00:18:27;;;;;;;66.50;31.08;;;;;;;;;;5056466;28;20174;-82
2023/12/14 00:20:56;;;;;;;63.35;29.85;;;;;;;;;;5057509;28;20180;-82
2023/12/14 00:23:23;;;;;;;78.10;32.72;;;;;;;;;;5057228;28;20211;-82
2023/12/14 00:25:49;;;;;;;69.57;31.98;;;;;;;;;;5057922;28;20184;-82
2023/12/14 00:28:15;;;;;;;62.53;31.38;;;;;;;;;;5057192;28;20169;-82
2023/12/14 00:30:41;;;;;;;74.63;31.57;;;;;;;;;;5056712;28;20170;-83
2023/12/14 00:33:07;;;;;;;68.33;31.33;;;;;;;;;;5056190;28;21052;-82
2023/12/14 00:35:33;;;;;;;67.43;29.57;;;;;;;;;;5057546;28;20753;-82
2023/12/14 00:37:59;;;;;;;69.10;30.50;;;;;;;;;;5055802;28;20400;-83
2023/12/14 00:40:25;;;;;;;63.97;30.27;;;;;;;;;;5057413;28;20489;-82
2023/12/14 00:42:51;;;;;;;67.68;31.67;;;;;;;;;;5057409;28;20415;-82
2023/12/14 00:45:17;;;;;;;74.20;33.08;;;;;;;;;;5057282;28;20199;-83
2023/12/14 00:47:43;;;;;;;68.60;30.02;;;;;;;;;;5056903;28;20175;-84
2023/12/14 00:50:09;;;;;;;74.13;32.67;;;;;;;;;;5058148;28;20184;-83
2023/12/14 00:52:35;;;;;;;80.38;34.33;;;;;;;;;;5058922;28;20519;-83
2023/12/14 00:55:01;;;;;;;74.20;32.27;;;;;;;;;;5058930;28;20662;-85
2023/12/14 00:57:27;;;;;;;64.23;30.20;;;;;;;;;;5058247;28;20431;-85
2023/12/14 00:59:53;;;;;;;81.73;32.97;;;;;;;;;;5063477;28;20411;-86
2023/12/14 01:02:19;;;;;;;76.47;35.38;;;;;;;;;;5063353;28;20483;-86
2023/12/14 01:04:45;;;;;;;69.50;32.00;;;;;;;;;;5061732;28;20218;-86
2023/12/14 01:07:11;;;;;;;79.40;34.58;;;;;;;;;;5065925;28;20417;-85
2023/12/14 01:09:37;;;;;;;68.67;32.53;;;;;;;;;;5062245;28;20219;-85
2023/12/14 01:12:03;;;;;;;77.13;34.77;;;;;;;;;;5061005;28;20947;-86
2023/12/14 01:14:29;;;;;;;80.28;33.63;;;;;;;;;;5059042;28;20467;-85
2023/12/14 01:16:55;;;;;;;78.73;34.77;;;;;;;;;;5071804;28;20236;-85
2023/12/14 01:19:21;;;;;;;86.28;34.92;;;;;;;;;;5079447;28;20402;-85
2023/12/14 01:21:47;;;;;;;82.40;32.70;;;;;;;;;;5078513;28;20179;-85
2023/12/14 01:24:14;;;;;;;69.80;33.10;;;;;;;;;;5078059;28;20248;-85
2023/12/14 01:26:40;;;;;;;72.22;33.60;;;;;;;;;;5077453;28;20181;-86
2023/12/14 01:29:06;;;;;;;81.37;36.13;;;;;;;;;;5076721;28;20655;-84
2023/12/14 01:31:32;;;;;;;73.93;31.60;;;;;;;;;;5078404;28;20809;-84
2023/12/14 01:33:58;;;;;;;84.97;32.83;;;;;;;;;;5078033;28;20216;-86
2023/12/14 01:36:24;;;;;;;76.47;33.80;;;;;;;;;;5077516;28;20414;-84
2023/12/14 01:38:53;;;;;;;79.82;31.67;;;;;;;;;;5076898;28;20473;-85
2023/12/14 01:41:19;;;;;;;80.35;31.50;;;;;;;;;;5075575;28;20168;-84
2023/12/14 01:43:45;;;;;;;84.82;32.83;;;;;;;;;;5076426;28;20234;-84
2023/12/14 01:46:12;;;;;;;84.85;33.95;;;;;;;;;;5075534;28;20180;-84
2023/12/14 01:48:38;;;;;;;84.90;34.85;;;;;;;;;;5076331;28;20180;-84
2023/12/14 01:51:05;;;;;;;75.63;32.22;;;;;;;;;;5076998;28;20169;-84
2023/12/14 01:53:31;;;;;;;86.70;34.25;;;;;;;;;;5076068;28;20243;-84
2023/12/14 01:55:57;;;;;;;82.80;35.03;;;;;;;;;;5077654;28;20172;-85
2023/12/14 01:58:23;;;;;;;81.38;34.95;;;;;;;;;;5079866;28;20251;-85
2023/12/14 02:01:04;;;;;;;82.63;33.83;;;;;;;;;;5079715;28;20173;-87
2023/12/14 02:03:30;;;;;;;83.68;35.70;;;;;;;;;;5081158;28;20179;-85
2023/12/14 02:05:57;;;;;;;100.28;36.70;;;;;;;;;;5081646;28;20182;-85
2023/12/14 02:08:24;;;;;;;111.10;42.65;;;;;;;;;;5080436;28;20253;-86
2023/12/14 02:10:50;;;;;;;113.53;40.83;;;;;;;;;;5080989;28;20214;-86
2023/12/14 02:13:16;;;;;;;115.28;43.40;;;;;;;;;;5079682;28;20245;-85
2023/12/14 02:15:42;;;;;;;110.15;39.75;;;;;;;;;;5077177;28;20185;-87
2023/12/14 02:18:11;;;;;;;115.05;41.30;;;;;;;;;;5077611;28;20199;-85
2023/12/14 02:20:37;;;;;;;108.13;38.42;;;;;;;;;;5075973;28;20177;-85
2023/12/14 02:23:03;;;;;;;105.67;40.43;;;;;;;;;;5076557;28;20260;-83
2023/12/14 02:25:29;;;;;;;101.53;37.47;;;;;;;;;;5058351;28;20407;-85
2023/12/14 02:27:55;;;;;;;96.65;37.15;;;;;;;;;;5076030;28;20800;-84
2023/12/14 02:30:21;;;;;;;91.40;34.70;;;;;;;;;;5074253;28;20528;-85
2023/12/14 02:32:47;;;;;;;88.00;33.80;;;;;;;;;;5077651;28;20205;-86
2023/12/14 02:35:13;;;;;;;87.23;32.97;;;;;;;;;;5076061;28;20206;-86
2023/12/14 02:37:42;;;;;;;87.38;31.70;;;;;;;;;;5075009;28;20409;-86
2023/12/14 02:40:09;;;;;;;75.97;30.95;;;;;;;;;;5075512;28;20218;-85
2023/12/14 02:42:34;;;;;;;73.45;29.95;;;;;;;;;;5073708;28;20179;-85
2023/12/14 02:45:02;;;;;;;84.27;32.37;;;;;;;;;;5075093;28;20186;-84
2023/12/14 02:47:28;;;;;;;87.45;30.55;;;;;;;;;;5073551;28;20405;-83
2023/12/14 02:49:54;;;;;;;81.38;32.85;;;;;;;;;;5074747;28;20526;-85
2023/12/14 02:52:20;;;;;;;87.50;32.00;;;;;;;;;;5074468;28;21286;-84
2023/12/14 02:54:46;;;;;;;93.07;32.67;;;;;;;;;;5074916;28;20706;-84
2023/12/14 02:57:12;;;;;;;65.80;25.47;;;;;;;;;;5073474;28;20818;-84
2023/12/14 02:59:38;;;;;;;86.17;30.83;;;;;;;;;;5074664;28;20409;-84
2023/12/14 03:02:04;;;;;;;96.07;34.17;;;;;;;;;;5074341;28;20403;-84
2023/12/14 03:04:30;;;;;;;83.10;29.67;;;;;;;;;;5074628;28;20901;-84
2023/12/14 03:06:56;;;;;;;78.82;29.55;;;;;;;;;;5074410;28;20187;-84
2023/12/14 03:09:22;;;;;;;75.30;31.30;;;;;;;;;;5075731;28;20177;-84
2023/12/14 03:11:48;;;;;;;77.53;28.30;;;;;;;;;;5078833;28;20410;-84
2023/12/14 03:14:15;;;;;;;78.88;28.42;;;;;;;;;;5078868;28;20241;-83
2023/12/14 03:16:40;;;;;;;77.28;30.45;;;;;;;;;;5078841;28;20189;-83
2023/12/14 03:19:06;;;;;;;80.30;28.43;;;;;;;;;;5078649;28;20592;-84
2023/12/14 03:21:32;;;;;;;72.43;27.87;;;;;;;;;;5078556;28;20764;-84
2023/12/14 03:23:58;;;;;;;77.90;29.20;;;;;;;;;;5078491;28;20457;-84
2023/12/14 03:26:24;;;;;;;93.80;31.80;;;;;;;;;;5078660;28;20406;-84
2023/12/14 03:28:50;;;;;;;78.60;28.08;;;;;;;;;;5078458;28;20411;-84
2023/12/14 03:31:16;;;;;;;83.40;28.57;;;;;;;;;;5078515;28;20548;-84
2023/12/14 03:33:43;;;;;;;92.00;32.47;;;;;;;;;;5078063;28;20476;-83
2023/12/14 03:36:09;;;;;;;76.28;29.35;;;;;;;;;;5078744;28;20460;-84
2023/12/14 03:38:35;;;;;;;79.83;31.00;;;;;;;;;;5078403;28;20183;-84
2023/12/14 03:41:01;;;;;;;77.93;30.73;;;;;;;;;;5077086;28;20414;-84
2023/12/14 03:43:27;;;;;;;76.60;30.87;;;;;;;;;;5078229;28;20273;-84
2023/12/14 03:45:53;;;;;;;79.38;30.90;;;;;;;;;;5077126;28;20408;-83
2023/12/14 03:48:19;;;;;;;80.40;27.05;;;;;;;;;;5078215;28;20233;-84
2023/12/14 03:50:45;;;;;;;67.03;24.77;;;;;;;;;;5079052;28;20179;-84
2023/12/14 03:53:11;;;;;;;71.20;25.80;;;;;;;;;;5079033;28;20890;-84
2023/12/14 03:55:37;;;;;;;57.30;24.10;;;;;;;;;;5077783;28;20420;-84
2023/12/14 03:58:03;;;;;;;61.57;25.70;;;;;;;;;;5078537;28;20441;-84
2023/12/14 04:00:29;;;;;;;51.93;22.50;;;;;;;;;;5079407;28;20424;-84
2023/12/14 04:02:55;;;;;;;62.50;26.13;;;;;;;;;;5078786;28;20922;-85
2023/12/14 04:05:21;;;;;;;64.23;25.23;;;;;;;;;;5076265;28;20850;-85
2023/12/14 04:07:47;;;;;;;70.68;28.67;;;;;;;;;;5078788;28;20421;-85
2023/12/14 04:10:13;;;;;;;71.63;28.70;;;;;;;;;;5078560;28;20310;-84
2023/12/14 04:12:40;;;;;;;77.15;28.13;;;;;;;;;;5078220;28;20185;-84
2023/12/14 04:15:07;;;;;;;61.67;25.08;;;;;;;;;;5077643;28;20716;-85
2023/12/14 04:17:33;;;;;;;67.90;25.48;;;;;;;;;;5076614;28;20173;-85
2023/12/14 04:19:59;;;;;;;73.03;27.33;;;;;;;;;;5077306;28;20170;-84
2023/12/14 04:22:26;;;;;;;78.65;25.42;;;;;;;;;;5076808;28;20563;-84
2023/12/14 04:24:52;;;;;;;77.20;27.80;;;;;;;;;;5078010;28;20180;-85
2023/12/14 04:27:19;;;;;;;78.25;28.73;;;;;;;;;;5079585;28;20238;-84
2023/12/14 04:29:45;;;;;;;75.80;26.85;;;;;;;;;;5079495;28;20176;-84
2023/12/14 04:32:11;;;;;;;66.73;25.90;;;;;;;;;;5078314;28;20545;-85
2023/12/14 04:34:37;;;;;;;66.63;23.63;;;;;;;;;;5078365;28;20521;-85
2023/12/14 04:37:03;;;;;;;66.30;25.60;;;;;;;;;;5078492;28;20628;-85
2023/12/14 04:39:29;;;;;;;62.38;25.38;;;;;;;;;;5078299;28;20474;-84
2023/12/14 04:41:55;;;;;;;74.18;26.35;;;;;;;;;;5077434;28;20183;-85
2023/12/14 04:44:21;;;;;;;77.53;28.30;;;;;;;;;;5077733;28;20207;-85
2023/12/14 04:46:47;;;;;;;69.07;26.92;;;;;;;;;;5077566;28;20185;-85
2023/12/14 04:49:13;;;;;;;72.28;28.90;;;;;;;;;;5079985;28;20186;-84
2023/12/14 04:51:39;;;;;;;75.95;30.52;;;;;;;;;;5076369;28;20173;-84
2023/12/14 04:54:05;;;;;;;85.40;29.90;;;;;;;;;;5077269;28;20240;-84
2023/12/14 04:56:31;;;;;;;94.80;28.70;;;;;;;;;;5077000;28;20409;-84
2023/12/14 04:58:58;;;;;;;98.30;32.47;;;;;;;;;;5076945;28;20185;-85
2023/12/14 05:01:26;;;;;;;81.72;32.08;;;;;;;;;;5077081;28;20405;-84
2023/12/14 05:03:52;;;;;;;79.85;30.08;;;;;;;;;;5076958;28;20218;-88
2023/12/14 05:06:18;;;;;;;91.70;30.92;;;;;;;;;;5075564;28;20184;-84
2023/12/14 05:08:44;;;;;;;77.67;30.60;;;;;;;;;;5075419;28;20584;-84
2023/12/14 05:11:10;;;;;;;91.00;32.75;;;;;;;;;;5075492;28;20415;-84
2023/12/14 05:13:36;;;;;;;90.70;32.67;;;;;;;;;;5076636;28;20544;-84
2023/12/14 05:16:02;;;;;;;84.33;31.50;;;;;;;;;;5076662;28;20494;-84
2023/12/14 05:18:28;;;;;;;84.32;32.20;;;;;;;;;;5076713;28;20456;-84
2023/12/14 05:20:54;;;;;;;90.43;32.00;;;;;;;;;;5076624;28;20211;-84
2023/12/14 05:23:20;;;;;;;86.50;33.10;;;;;;;;;;5076401;28;20418;-84
2023/12/14 05:25:46;;;;;;;78.70;28.53;;;;;;;;;;5075139;28;20406;-83
2023/12/14 05:28:12;;;;;;;66.17;27.40;;;;;;;;;;5076274;28;20874;-84
2023/12/14 05:30:38;;;;;;;70.50;26.50;;;;;;;;;;5075011;28;20561;-84
2023/12/14 05:33:04;;;;;;;68.47;27.40;;;;;;;;;;5074907;28;20407;-83
2023/12/14 05:35:30;;;;;;;71.50;25.83;;;;;;;;;;5076038;28;20409;-82
2023/12/14 05:37:56;;;;;;;71.28;28.88;;;;;;;;;;5076004;28;20177;-84
2023/12/14 05:40:22;;;;;;;71.63;28.13;;;;;;;;;;5076088;28;20258;-83
2023/12/14 05:42:48;;;;;;;67.70;27.83;;;;;;;;;;5076170;28;20395;-83
2023/12/14 05:45:14;;;;;;;69.03;27.20;;;;;;;;;;5076052;28;20772;-83
2023/12/14 05:47:41;;;;;;;65.67;26.67;;;;;;;;;;5076255;28;20410;-83
2023/12/14 05:50:09;;;;;;;76.07;26.88;;;;;;;;;;5076109;28;20395;-82
2023/12/14 05:52:35;;;;;;;72.95;28.20;;;;;;;;;;5076010;28;20291;-83
2023/12/14 05:55:01;;;;;;;76.57;25.98;;;;;;;;;;5075798;28;20211;-83
2023/12/14 05:57:27;;;;;;;78.53;29.70;;;;;;;;;;5075985;28;20199;-83
2023/12/14 05:59:53;;;;;;;66.57;27.47;;;;;;;;;;5075863;28;20412;-83
2023/12/14 06:02:19;;;;;;;70.53;24.08;;;;;;;;;;5057984;28;20552;-83
2023/12/14 06:04:45;;;;;;;57.07;23.67;;;;;;;;;;5076148;28;20194;-83
2023/12/14 06:07:11;;;;;;;69.23;24.77;;;;;;;;;;5074433;28;20898;-82
2023/12/14 06:09:37;;;;;;;80.90;27.67;;;;;;;;;;5075951;28;20406;-83
2023/12/14 06:12:04;;;;;;;70.97;26.40;;;;;;;;;;5075840;28;20204;-84
2023/12/14 06:14:30;;;;;;;60.28;22.10;;;;;;;;;;5076110;28;20228;-83
2023/12/14 06:16:56;;;;;;;68.10;24.17;;;;;;;;;;5075872;28;20520;-82
2023/12/14 06:19:22;;;;;;;68.47;25.57;;;;;;;;;;5075219;28;20177;-83
2023/12/14 06:21:48;;;;;;;67.55;21.45;;;;;;;;;;5075894;28;20457;-82
2023/12/14 06:24:14;;;;;;;71.95;24.80;;;;;;;;;;5075639;28;20186;-83
2023/12/14 06:26:46;;;;;;;66.03;23.40;;;;;;;;;;5074778;28;20184;-82
2023/12/14 06:29:12;;;;;;;64.78;24.58;;;;;;;;;;5075211;28;20404;-83
2023/12/14 06:31:39;;;;;;;46.75;19.35;;;;;;;;;;5075777;28;20174;-83
2023/12/14 06:34:06;;;;;;;69.85;24.77;;;;;;;;;;5074827;28;20216;-82
2023/12/14 06:36:32;;;;;;;66.18;24.10;;;;;;;;;;5074207;28;20183;-83
2023/12/14 06:38:58;;;;;;;68.95;25.10;;;;;;;;;;5075074;28;20206;-87
2023/12/14 06:41:25;;;;;;;70.25;25.45;;;;;;;;;;5075021;28;20262;-83
2023/12/14 06:43:51;;;;;;;68.68;25.42;;;;;;;;;;5080910;28;20228;-83
2023/12/14 06:46:17;;;;;;;78.93;24.95;;;;;;;;;;5075034;28;20259;-83
2023/12/14 06:48:43;;;;;;;79.40;27.38;;;;;;;;;;5075455;28;20212;-83
2023/12/14 06:51:10;;;;;;;68.25;23.98;;;;;;;;;;5075370;28;20176;-83
2023/12/14 06:53:38;;;;;;;74.60;25.20;;;;;;;;;;5075318;28;20228;-83
2023/12/14 06:56:09;;;;;;;70.60;22.85;;;;;;;;;;5074407;28;20225;-83
2023/12/14 06:58:35;;;;;;;74.57;25.55;;;;;;;;;;5074822;28;20176;-83
2023/12/14 07:01:01;;;;;;;80.23;25.87;;;;;;;;;;5074873;28;20541;-83
2023/12/14 07:03:27;;;;;;;77.55;26.48;;;;;;;;;;5074209;28;20518;-83
2023/12/14 07:05:53;;;;;;;68.77;24.67;;;;;;;;;;5075156;28;20644;-83
2023/12/14 07:08:19;;;;;;;76.20;26.23;;;;;;;;;;5075246;28;20762;-83
2023/12/14 07:10:45;;;;;;;67.82;24.23;;;;;;;;;;5074919;28;20406;-82
2023/12/14 07:13:11;;;;;;;78.40;26.27;;;;;;;;;;5075011;28;20173;-83
2023/12/14 07:15:37;;;;;;;69.73;23.93;;;;;;;;;;5075024;28;20396;-81
2023/12/14 07:18:03;;;;;;;71.22;25.55;;;;;;;;;;5073222;28;20403;-83
2023/12/14 07:20:29;;;;;;;78.20;26.65;;;;;;;;;;5076966;28;20530;-82
2023/12/14 07:22:55;;;;;;;73.63;23.30;;;;;;;;;;5074549;28;20181;-82
2023/12/14 07:25:20;;;;;;;73.87;23.53;;;;;;;;;;5074259;28;20488;-82
2023/12/14 07:27:46;;;;;;;72.43;21.60;;;;;;;;;;5074955;28;20395;-82
2023/12/14 07:30:13;;;;;;;64.43;25.27;;;;;;;;;;5074213;28;20819;-82
2023/12/14 07:32:39;;;;;;;66.88;24.70;;;;;;;;;;5074695;28;20480;-82
2023/12/14 07:35:05;;;;;;;70.30;23.98;;;;;;;;;;5072809;28;20204;-83
2023/12/14 07:37:31;;;;;;;65.43;22.48;;;;;;;;;;5074724;28;20213;-83
2023/12/14 07:39:58;;;;;;;68.40;23.43;;;;;;;;;;5073062;28;20177;-82
2023/12/14 07:42:24;;;;;;;70.82;23.02;;;;;;;;;;5074389;28;20399;-82
2023/12/14 07:44:50;;;;;;;64.70;22.92;;;;;;;;;;5074054;28;20189;-82
2023/12/14 07:47:16;;;;;;;67.78;24.98;;;;;;;;;;5074794;28;20178;-82
2023/12/14 07:49:42;;;;;;;66.22;24.10;;;;;;;;;;5074582;28;20181;-82
2023/12/14 07:52:09;;;;;;;70.25;23.67;;;;;;;;;;5073842;28;20170;-82
2023/12/14 07:54:35;;;;;;;68.90;25.23;;;;;;;;;;5073947;28;20244;-82
2023/12/14 07:57:01;;;;;;;69.57;24.45;;;;;;;;;;5076731;28;20519;-82
2023/12/14 07:59:27;;;;;;;57.10;22.00;;;;;;;;;;5076797;28;20275;-82
2023/12/14 08:01:53;;;;;;;55.23;19.70;;;;;;;;;;5078181;28;20395;-82
2023/12/14 08:04:19;;;;;;;54.30;19.70;;;;;;;;;;5078296;28;20839;-82
2023/12/14 08:06:45;;;;;;;59.77;19.27;;;;;;;;;;5078197;28;20407;-84
2023/12/14 08:09:11;;;;;;;54.90;20.83;;;;;;;;;;5077609;28;20395;-83
2023/12/14 08:11:36;;;;;;;63.13;22.67;;;;;;;;;;5077048;28;20498;-83
2023/12/14 08:14:03;;;;;;;53.10;19.03;;;;;;;;;;5077588;28;20462;-83
2023/12/14 08:16:29;;;;;;;58.00;20.48;;;;;;;;;;5077978;28;20416;-84
2023/12/14 08:18:55;;;;;;;45.45;17.33;;;;;;;;;;5078241;28;20524;-84
2023/12/14 08:21:20;;;;;;;56.77;21.50;;;;;;;;;;5077599;28;20176;-84
2023/12/14 08:23:46;;;;;;;51.38;20.67;;;;;;;;;;5078110;28;20514;-83
2023/12/14 08:26:13;;;;;;;64.73;21.67;;;;;;;;;;5076814;28;20185;-84
2023/12/14 08:28:42;;;;;;;63.70;23.77;;;;;;;;;;5077782;28;20451;-84
2023/12/14 08:31:09;;;;;;;56.70;21.40;;;;;;;;;;5077713;28;20210;-84
2023/12/14 08:33:36;;;;;;;55.78;19.85;;;;;;;;;;5078095;28;20254;-80
2023/12/14 08:36:02;;;;;;;61.00;21.88;;;;;;;;;;5077429;28;20179;-82
2023/12/14 08:38:28;;;;;;;55.97;20.77;;;;;;;;;;5077350;28;20176;-82
2023/12/14 08:40:54;;;;;;;63.43;23.00;;;;;;;;;;5077967;28;20528;-82
2023/12/14 08:43:20;;;;;;;65.17;22.30;;;;;;;;;;5077851;28;20444;-82
2023/12/14 08:45:47;;;;;;;65.23;22.07;;;;;;;;;;5077742;28;20403;-82
2023/12/14 08:48:13;;;;;;;65.22;23.02;;;;;;;;;;5077705;28;20498;-82
2023/12/14 08:50:39;;;;;;;67.00;24.27;;;;;;;;;;5077806;28;20644;-82
2023/12/14 08:53:05;;;;;;;80.20;25.53;;;;;;;;;;5077396;28;20783;-82
2023/12/14 08:55:31;;;;;;;62.72;22.63;;;;;;;;;;5078005;28;20910;-82
2023/12/14 08:57:57;;;;;;;59.08;25.02;;;;;;;;;;5077552;28;20268;-81
2023/12/14 09:00:24;;;;;;;64.47;22.02;;;;;;;;;;5077064;28;20593;-82
2023/12/14 09:02:50;;;;;;;65.78;23.45;;;;;;;;;;5077104;28;20200;-82
2023/12/14 09:05:18;;;;;;;59.93;23.37;;;;;;;;;;5076557;28;20212;-82
2023/12/14 09:07:44;;;;;;;68.20;23.27;;;;;;;;;;5076760;28;20429;-82
2023/12/14 09:10:10;;;;;;;62.67;23.27;;;;;;;;;;5077106;28;20600;-82
2023/12/14 09:12:36;;;;;;;43.95;17.75;;;;;;;;;;5077389;28;20398;-82
2023/12/14 09:15:02;;;;;;;62.42;24.48;;;;;;;;;;5077176;28;20304;-82
2023/12/14 09:17:32;;;;;;;55.90;24.17;;;;;;;;;;5076992;28;20234;-82
2023/12/14 09:19:59;;;;;;;69.00;26.23;;;;;;;;;;5075925;28;20176;-82
2023/12/14 09:22:25;;;;;;;69.38;25.23;;;;;;;;;;5077162;28;20226;-82
2023/12/14 09:24:51;;;;;;;69.00;24.42;;;;;;;;;;5075798;28;20189;-82
2023/12/14 09:27:17;;;;;;;64.83;24.30;;;;;;;;;;5077078;28;20172;-82
2023/12/14 09:29:43;;;;;;;84.13;26.90;;;;;;;;;;5076923;28;20411;-82
2023/12/14 09:32:09;;;;;;;59.28;23.88;;;;;;;;;;5076859;28;20207;-83
2023/12/14 09:34:35;;;;;;;60.70;23.80;;;;;;;;;;5076747;28;20197;-82
2023/12/14 09:37:02;;;;;;;64.53;21.42;;;;;;;;;;5077232;28;20188;-81
2023/12/14 09:39:28;;;;;;;57.42;24.85;;;;;;;;;;5076554;28;20169;-82
2023/12/14 09:42:04;;;;;;;64.47;26.00;;;;;;;;;;5076640;28;20216;-82
2023/12/14 09:44:30;;;;;;;52.95;21.13;;;;;;;;;;5076777;28;20899;-82
2023/12/14 09:46:56;;;;;;;54.90;23.17;;;;;;;;;;5075490;28;20204;-82
2023/12/14 09:49:24;;;;;;;53.47;21.85;;;;;;;;;;5076318;28;20172;-82
2023/12/14 09:51:50;;;;;;;58.28;22.08;;;;;;;;;;5076240;28;20209;-82
2023/12/14 09:54:16;;;;;;;58.03;22.10;;;;;;;;;;5076291;28;20228;-82
2023/12/14 09:56:46;;;;;;;54.45;21.42;;;;;;;;;;5075207;28;20423;-82
2023/12/14 09:59:13;;;;;;;58.20;24.20;;;;;;;;;;5076353;28;20169;-83
2023/12/14 10:01:39;;;;;;;62.25;23.77;;;;;;;;;;5076504;28;20176;-82
2023/12/14 10:04:12;;;;;;;59.90;24.07;;;;;;;;;;5076124;28;20238;-82
2023/12/14 10:06:42;;;;;;;62.25;23.02;;;;;;;;;;5076452;28;20871;-81
2023/12/14 10:09:16;;;;;;;59.75;25.00;;;;;;;;;;5076246;28;20178;-82
2023/12/14 10:11:43;;;;;;;61.60;25.50;;;;;;;;;;5076235;28;20221;-82
2023/12/14 10:14:22;;;;;;;57.92;24.23;;;;;;;;;;5076407;28;20371;-82
2023/12/14 10:16:51;;;;;;;65.05;24.65;;;;;;;;;;5076132;28;20565;-82
2023/12/14 10:19:17;;;;;;;57.25;23.58;;;;;;;;;;5078964;28;20256;-81
2023/12/14 10:21:43;;;;;;;62.25;24.77;;;;;;;;;;5076109;28;20168;-81
2023/12/14 10:24:09;;;;;;;63.20;28.38;;;;;;;;;;5057928;28;20265;-81
2023/12/14 10:26:36;;;;;;;65.28;25.25;;;;;;;;;;5075892;28;20184;-82
2023/12/14 10:29:04;;;;;;;56.88;24.27;;;;;;;;;;5076093;28;20180;-82
2023/12/14 10:31:30;;;;;;;59.80;25.90;;;;;;;;;;5075838;28;20226;-81
2023/12/14 10:33:56;;;;;;;54.05;21.60;;;;;;;;;;5075910;28;20247;-81
2023/12/14 10:36:25;;;;;;;53.57;22.00;;;;;;;;;;5075506;28;20519;-81
2023/12/14 10:38:53;;;;;;;53.72;21.95;;;;;;;;;;5075886;28;20403;-82
2023/12/14 10:41:22;;;;;;;60.35;24.10;;;;;;;;;;5075612;28;20179;-82
2023/12/14 10:43:49;;;;;;;48.45;20.85;;;;;;;;;;5075858;28;20198;-81
2023/12/14 10:46:15;;;;;;;44.92;20.27;;;;;;;;;;5075859;28;20172;-82
2023/12/14 10:48:43;;;;;;;50.03;23.10;;;;;;;;;;5075288;28;20671;-81
2023/12/14 10:51:11;;;;;;;46.85;20.83;;;;;;;;;;5075356;28;20314;-82
2023/12/14 10:53:37;;;;;;;47.60;21.83;;;;;;;;;;5075671;28;20228;-82
2023/12/14 10:56:10;;;;;;;46.78;22.60;;;;;;;;;;5076156;28;20200;-82
2023/12/14 10:58:49;;;;;;;45.13;19.65;;;;;;;;;;5076068;28;20514;-82
2023/12/14 11:01:16;;;;;;;47.78;21.17;;;;;;;;;;5075493;28;20179;-82
2023/12/14 11:03:44;;;;;;;50.90;20.08;;;;;;;;;;5074653;28;20621;-82
2023/12/14 11:06:25;;;;;;;47.17;20.48;;;;;;;;;;5075977;28;20215;-82
2023/12/14 11:08:57;;;;;;;51.30;21.20;;;;;;;;;;5082662;28;20175;-82
2023/12/14 11:11:23;;;;;;;39.40;18.85;;;;;;;;;;5075498;28;20173;-82
2023/12/14 11:13:52;;;;;;;41.53;20.10;;;;;;;;;;5075504;28;20243;-81
2023/12/14 11:16:20;;;;;;;45.47;20.83;;;;;;;;;;5074818;28;20401;-82
2023/12/14 11:18:46;;;;;;;44.00;19.90;;;;;;;;;;5075479;28;20533;-81
2023/12/14 11:21:19;;;;;;;46.17;20.67;;;;;;;;;;5075812;28;20238;-81
2023/12/14 11:23:45;;;;;;;48.85;23.52;;;;;;;;;;5075405;28;20415;-82
2023/12/14 11:26:11;;;;;;;45.00;20.23;;;;;;;;;;5075799;28;20546;-81
2023/12/14 11:28:42;;;;;;;45.13;19.38;;;;;;;;;;5075408;28;20403;-82
2023/12/14 11:31:10;;;;;;;51.25;23.10;;;;;;;;;;5077511;28;20242;-82
2023/12/14 11:33:36;;;;;;;48.60;21.85;;;;;;;;;;5079269;28;20235;-81
2023/12/14 11:36:03;;;;;;;47.80;19.17;;;;;;;;;;5079410;28;20173;-82
2023/12/14 11:38:29;;;;;;;57.08;22.52;;;;;;;;;;5079603;28;20200;-82
2023/12/14 11:40:55;;;;;;;55.30;24.25;;;;;;;;;;5078002;28;20641;-82
2023/12/14 11:43:23;;;;;;;52.25;23.00;;;;;;;;;;5079004;28;20523;-82
2023/12/14 11:45:49;;;;;;;49.85;21.50;;;;;;;;;;5079084;28;20189;-82
2023/12/14 11:48:16;;;;;;;46.63;19.58;;;;;;;;;;5079069;28;20249;-82
2023/12/14 11:50:43;;;;;;;46.65;20.80;;;;;;;;;;5078994;28;20204;-81
2023/12/14 11:53:09;;;;;;;46.55;21.35;;;;;;;;;;5078820;28;20606;-81
2023/12/14 11:55:36;;;;;;;44.63;21.70;;;;;;;;;;5078736;28;20188;-81
2023/12/14 11:58:03;;;;;;;40.25;20.05;;;;;;;;;;5078560;28;20206;-81
2023/12/14 12:00:30;;;;;;;47.75;22.50;;;;;;;;;;5077138;28;20207;-81
2023/12/14 12:03:11;;;;;;;41.58;19.40;;;;;;;;;;5078703;28;20208;-81
2023/12/14 12:05:38;;;;;;;43.55;22.33;;;;;;;;;;5078454;28;20201;-81
2023/12/14 12:08:04;;;;;;;45.03;20.67;;;;;;;;;;5078933;28;20177;-81
2023/12/14 12:10:30;;;;;;;43.30;20.52;;;;;;;;;;5078516;28;20310;-81
2023/12/14 12:13:15;;;;;;;46.72;21.98;;;;;;;;;;5078551;28;20581;-81
2023/12/14 12:15:41;;;;;;;43.95;19.77;;;;;;;;;;5078117;28;20180;-81
2023/12/14 12:18:08;;;;;;;39.60;19.50;;;;;;;;;;5078640;28;20601;-80
2023/12/14 12:20:34;;;;;;;44.20;20.40;;;;;;;;;;5082341;28;20407;-80
2023/12/14 12:23:01;;;;;;;44.20;20.98;;;;;;;;;;5079676;28;20179;-81
2023/12/14 12:25:27;;;;;;;39.80;19.58;;;;;;;;;;5078759;28;20200;-81
2023/12/14 12:27:55;;;;;;;37.13;19.38;;;;;;;;;;5078716;28;20184;-81
2023/12/14 12:30:21;;;;;;;36.55;18.73;;;;;;;;;;5078220;28;20180;-81
2023/12/14 12:32:47;;;;;;;36.70;19.17;;;;;;;;;;5078270;28;20263;-81
2023/12/14 12:35:13;;;;;;;31.60;15.70;;;;;;;;;;5081395;28;20227;-81
2023/12/14 12:37:39;;;;;;;34.45;17.08;;;;;;;;;;5077423;28;20190;-81
2023/12/14 12:40:07;;;;;;;34.70;17.70;;;;;;;;;;5078653;28;20636;-81
2023/12/14 12:42:33;;;;;;;36.97;17.42;;;;;;;;;;5077149;28;20185;-81
2023/12/14 12:44:59;;;;;;;31.63;17.97;;;;;;;;;;5078585;28;20259;-81
2023/12/14 12:47:25;;;;;;;34.33;19.23;;;;;;;;;;5077421;28;20407;-81
2023/12/14 12:49:51;;;;;;;30.67;17.33;;;;;;;;;;5078175;28;20490;-81
2023/12/14 12:52:17;;;;;;;32.03;16.02;;;;;;;;;;5077870;28;20771;-81
2023/12/14 12:54:43;;;;;;;29.03;15.47;;;;;;;;;;5076780;28;20208;-81
2023/12/14 12:57:09;;;;;;;29.87;15.80;;;;;;;;;;5077892;28;20403;-80
2023/12/14 12:59:35;;;;;;;29.00;16.97;;;;;;;;;;5078313;28;20400;-81
2023/12/14 13:02:02;;;;;;;33.67;16.23;;;;;;;;;;5078553;28;20970;-81
2023/12/14 13:04:30;;;;;;;27.08;14.15;;;;;;;;;;5078038;28;20438;-81
2023/12/14 13:06:56;;;;;;;27.42;14.95;;;;;;;;;;5078055;28;20234;-81
2023/12/14 13:09:22;;;;;;;29.23;15.07;;;;;;;;;;5076577;28;20189;-82
2023/12/14 13:11:50;;;;;;;24.23;13.30;;;;;;;;;;5077827;28;20542;-81
2023/12/14 13:14:16;;;;;;;25.83;14.25;;;;;;;;;;5077581;28;20204;-80
2023/12/14 13:16:42;;;;;;;26.48;14.27;;;;;;;;;;5077854;28;20184;-81
2023/12/14 13:19:09;;;;;;;23.85;13.10;;;;;;;;;;5077302;28;20707;-81
2023/12/14 13:21:35;;;;;;;27.77;13.35;;;;;;;;;;5077023;28;20179;-81
2023/12/14 13:24:01;;;;;;;23.05;12.10;;;;;;;;;;5076685;28;20180;-81
2023/12/14 13:26:27;;;;;;;26.33;13.65;;;;;;;;;;5077477;28;20255;-81
2023/12/14 13:28:54;;;;;;;22.20;12.27;;;;;;;;;;5077163;28;20169;-80
2023/12/14 13:31:20;;;;;;;24.58;13.05;;;;;;;;;;5077705;28;20629;-80
2023/12/14 13:33:53;;;;;;;22.92;13.18;;;;;;;;;;5077666;28;20215;-81
2023/12/14 13:36:19;;;;;;;25.88;13.55;;;;;;;;;;5077320;28;20180;-81
2023/12/14 13:38:45;;;;;;;24.58;13.70;;;;;;;;;;5076772;28;20188;-81
2023/12/14 13:41:11;;;;;;;19.70;11.20;;;;;;;;;;5077439;28;20169;-81
2023/12/14 13:43:37;;;;;;;22.27;12.90;;;;;;;;;;5077283;28;20199;-81
2023/12/14 13:46:04;;;;;;;22.23;12.95;;;;;;;;;;5077335;28;20177;-81
2023/12/14 13:48:30;;;;;;;23.83;13.38;;;;;;;;;;5077013;28;20195;-82
2023/12/14 13:50:56;;;;;;;22.92;13.20;;;;;;;;;;5076872;28;20180;-82
2023/12/14 13:53:23;;;;;;;21.25;13.10;;;;;;;;;;5076266;28;20224;-81
2023/12/14 13:55:49;;;;;;;20.67;12.57;;;;;;;;;;5076233;28;20181;-81
2023/12/14 13:58:15;;;;;;;25.10;13.90;;;;;;;;;;5077068;28;20176;-82
2023/12/14 14:00:42;;;;;;;22.25;12.75;;;;;;;;;;5078213;28;20301;-81
2023/12/14 14:03:08;;;;;;;23.00;12.75;;;;;;;;;;5078634;28;20327;-81
2023/12/14 14:05:34;;;;;;;23.15;11.80;;;;;;;;;;5076970;28;20204;-81
2023/12/14 14:08:00;;;;;;;19.65;12.15;;;;;;;;;;5076761;28;20173;-81
2023/12/14 14:10:26;;;;;;;22.60;12.98;;;;;;;;;;5076527;28;20173;-82
2023/12/14 14:12:52;;;;;;;25.40;11.52;;;;;;;;;;5076612;28;20176;-81